sensor_id;sensor_type;location;lat;lon;timestamp;pressure;altitude;pressure_sealevel;temperature;humidity
19676;BME280;39539;52.202;9.876;2022-08-19T00:02:25;100474.19;;;19.55;100.00
19676;BME280;39539;52.202;9.876;2022-08-19T00:04:50;100474.19;;;19.60;100.00
19676;BME280;39539;52.202;9.876;2022-08-19T00:07:19;100458.31;;;19.54;100.00
19676;BME280;39539;52.202;9.876;2022-08-19T00:09:45;100464.50;;;19.54;100.00
19676;BME280;39539;52.202;9.876;2022-08-19T00:12:10;100452.63;;;19.50;100.00
19676;BME280;39539;52.202;9.876;2022-08-19T00:14:36;100452.09;;;19.43;100.00
19676;BME280;39539;52.202;9.876;2022-08-19T00:17:02;100456.41;;;19.49;100.00
19676;BME280;39539;52.202;9.876;2022-08-19T00:19:28;100457.22;;;19.44;100.00
19676;BME280;39539;52.202;9.876;2022-08-19T00:21:54;100442.66;;;19.35;100.00
19676;BME280;39539;52.202;9.876;2022-08-19T00:24:21;100458.03;;;19.40;100.00
19676;BME280;39539;52.202;9.876;2022-08-19T00:26:47;100432.72;;;19.25;100.00
19676;BME280;39539;52.202;9.876;2022-08-19T00:29:14;100450.50;;;19.32;100.00
19676;BME280;39539;52.202;9.876;2022-08-19T00:31:40;100445.66;;;19.28;100.00
19676;BME280;39539;52.202;9.876;2022-08-19T00:34:06;100446.72;;;19.22;100.00
19676;BME280;39539;52.202;9.876;2022-08-19T00:36:32;100440.25;;;19.18;100.00
19676;BME280;39539;52.202;9.876;2022-08-19T00:38:58;100430.28;;;19.14;100.00
19676;BME280;39539;52.202;9.876;2022-08-19T00:41:24;100435.94;;;19.17;100.00
19676;BME280;39539;52.202;9.876;2022-08-19T00:44:09;100443.75;;;19.19;100.00
19676;BME280;39539;52.202;9.876;2022-08-19T00:46:37;100422.19;;;19.03;100.00
19676;BME280;39539;52.202;9.876;2022-08-19T00:49:09;100439.72;;;19.11;100.00
19676;BME280;39539;52.202;9.876;2022-08-19T00:51:37;100440.25;;;19.08;100.00
19676;BME280;39539;52.202;9.876;2022-08-19T00:54:03;100427.84;;;19.02;100.00
19676;BME280;39539;52.202;9.876;2022-08-19T00:56:29;100433.22;;;19.02;100.00
19676;BME280;39539;52.202;9.876;2022-08-19T00:58:57;100428.94;;;19.01;100.00
19676;BME280;39539;52.202;9.876;2022-08-19T01:01:23;100432.16;;;18.98;100.00
19676;BME280;39539;52.202;9.876;2022-08-19T01:03:49;100432.72;;;18.95;100.00
19676;BME280;39539;52.202;9.876;2022-08-19T01:06:14;100430.28;;;18.88;100.00
19676;BME280;39539;52.202;9.876;2022-08-19T01:08:40;100439.16;;;18.94;100.00
19676;BME280;39539;52.202;9.876;2022-08-19T01:11:06;100446.19;;;18.95;100.00
19676;BME280;39539;52.202;9.876;2022-08-19T01:13:33;100434.31;;;18.91;100.00
19676;BME280;39539;52.202;9.876;2022-08-19T01:16:06;100442.41;;;18.96;100.00
19676;BME280;39539;52.202;9.876;2022-08-19T01:18:36;100437.53;;;18.93;100.00
19676;BME280;39539;52.202;9.876;2022-08-19T01:21:09;100421.91;;;18.84;100.00
19676;BME280;39539;52.202;9.876;2022-08-19T01:23:36;100425.16;;;18.92;100.00
19676;BME280;39539;52.202;9.876;2022-08-19T01:26:17;100414.91;;;18.83;100.00
19676;BME280;39539;52.202;9.876;2022-08-19T01:28:44;100421.66;;;18.86;100.00
19676;BME280;39539;52.202;9.876;2022-08-19T01:31:16;100416.00;;;18.82;100.00
19676;BME280;39539;52.202;9.876;2022-08-19T01:33:42;100421.09;;;18.79;100.00
19676;BME280;39539;52.202;9.876;2022-08-19T01:36:11;100408.66;;;18.68;100.00
19676;BME280;39539;52.202;9.876;2022-08-19T01:38:39;100422.72;;;18.75;100.00
19676;BME280;39539;52.202;9.876;2022-08-19T01:41:05;100405.72;;;18.69;100.00
19676;BME280;39539;52.202;9.876;2022-08-19T01:43:32;100406.53;;;18.70;100.00
19676;BME280;39539;52.202;9.876;2022-08-19T01:45:57;100404.69;;;18.75;100.00
19676;BME280;39539;52.202;9.876;2022-08-19T01:48:23;100399.28;;;18.75;100.00
19676;BME280;39539;52.202;9.876;2022-08-19T01:50:48;100401.72;;;18.77;100.00
19676;BME280;39539;52.202;9.876;2022-08-19T01:53:14;100395.00;;;18.74;100.00
19676;BME280;39539;52.202;9.876;2022-08-19T01:55:42;100379.59;;;18.70;100.00
19676;BME280;39539;52.202;9.876;2022-08-19T01:58:18;100396.59;;;18.75;100.00
19676;BME280;39539;52.202;9.876;2022-08-19T02:00:45;100393.31;;;18.68;100.00
19676;BME280;39539;52.202;9.876;2022-08-19T02:03:11;100375.03;;;18.60;100.00
19676;BME280;39539;52.202;9.876;2022-08-19T02:05:37;100394.94;;;18.69;100.00
19676;BME280;39539;52.202;9.876;2022-08-19T02:08:03;100406.78;;;18.73;100.00
19676;BME280;39539;52.202;9.876;2022-08-19T02:10:29;100401.13;;;18.70;100.00
19676;BME280;39539;52.202;9.876;2022-08-19T02:12:54;100408.97;;;18.71;100.00
19676;BME280;39539;52.202;9.876;2022-08-19T02:15:20;100403.81;;;18.65;100.00
19676;BME280;39539;52.202;9.876;2022-08-19T02:17:47;100391.16;;;18.65;100.00
19676;BME280;39539;52.202;9.876;2022-08-19T02:20:13;100392.81;;;18.71;100.00
19676;BME280;39539;52.202;9.876;2022-08-19T02:22:39;100387.91;;;18.68;100.00
19676;BME280;39539;52.202;9.876;2022-08-19T02:25:08;100385.25;;;18.58;100.00
19676;BME280;39539;52.202;9.876;2022-08-19T02:27:33;100370.16;;;18.47;100.00
19676;BME280;39539;52.202;9.876;2022-08-19T02:29:59;100385.75;;;18.50;100.00
19676;BME280;39539;52.202;9.876;2022-08-19T02:32:24;100386.28;;;18.47;100.00
19676;BME280;39539;52.202;9.876;2022-08-19T02:34:50;100389.53;;;18.49;100.00
19676;BME280;39539;52.202;9.876;2022-08-19T02:37:15;100391.66;;;18.42;100.00
19676;BME280;39539;52.202;9.876;2022-08-19T02:40:00;100384.91;;;18.39;100.00
19676;BME280;39539;52.202;9.876;2022-08-19T02:42:25;100383.28;;;18.33;100.00
19676;BME280;39539;52.202;9.876;2022-08-19T02:44:50;100386.25;;;18.26;100.00
19676;BME280;39539;52.202;9.876;2022-08-19T02:47:17;100387.06;;;18.27;100.00
19676;BME280;39539;52.202;9.876;2022-08-19T02:49:44;100404.56;;;18.34;100.00
19676;BME280;39539;52.202;9.876;2022-08-19T02:52:09;100401.88;;;18.34;100.00
19676;BME280;39539;52.202;9.876;2022-08-19T02:54:36;100410.47;;;18.36;100.00
19676;BME280;39539;52.202;9.876;2022-08-19T02:57:02;100409.97;;;18.34;100.00
19676;BME280;39539;52.202;9.876;2022-08-19T02:59:30;100410.22;;;18.38;100.00
19676;BME280;39539;52.202;9.876;2022-08-19T03:01:55;100404.56;;;18.34;100.00
19676;BME280;39539;52.202;9.876;2022-08-19T03:04:21;100411.28;;;18.37;100.00
19676;BME280;39539;52.202;9.876;2022-08-19T03:06:48;100402.13;;;18.28;100.00
19676;BME280;39539;52.202;9.876;2022-08-19T03:09:13;100400.25;;;18.33;100.00
19676;BME280;39539;52.202;9.876;2022-08-19T03:11:40;100414.00;;;18.42;100.00
19676;BME280;39539;52.202;9.876;2022-08-19T03:14:07;100414.78;;;18.43;100.00
19676;BME280;39539;52.202;9.876;2022-08-19T03:16:40;100424.22;;;18.45;100.00
19676;BME280;39539;52.202;9.876;2022-08-19T03:19:05;100422.06;;;18.42;100.00
19676;BME280;39539;52.202;9.876;2022-08-19T03:21:32;100424.50;;;18.44;100.00
19676;BME280;39539;52.202;9.876;2022-08-19T03:24:02;100423.97;;;18.42;100.00
19676;BME280;39539;52.202;9.876;2022-08-19T03:26:29;100415.03;;;18.31;100.00
19676;BME280;39539;52.202;9.876;2022-08-19T03:28:55;100413.69;;;18.33;100.00
19676;BME280;39539;52.202;9.876;2022-08-19T03:31:22;100402.34;;;18.16;100.00
19676;BME280;39539;52.202;9.876;2022-08-19T03:33:48;100416.06;;;18.20;100.00
19676;BME280;39539;52.202;9.876;2022-08-19T03:36:17;100421.75;;;18.23;100.00
19676;BME280;39539;52.202;9.876;2022-08-19T03:38:52;100412.06;;;18.22;100.00
19676;BME280;39539;52.202;9.876;2022-08-19T03:41:25;100412.84;;;18.23;100.00
19676;BME280;39539;52.202;9.876;2022-08-19T03:43:52;100409.59;;;18.10;100.00
19676;BME280;39539;52.202;9.876;2022-08-19T03:46:20;100422.53;;;18.18;100.00
19676;BME280;39539;52.202;9.876;2022-08-19T03:48:46;100420.63;;;18.14;100.00
19676;BME280;39539;52.202;9.876;2022-08-19T03:51:18;100414.72;;;18.17;100.00
19676;BME280;39539;52.202;9.876;2022-08-19T03:53:44;100419.28;;;18.16;100.00
19676;BME280;39539;52.202;9.876;2022-08-19T03:56:10;100421.22;;;18.21;100.00
19676;BME280;39539;52.202;9.876;2022-08-19T03:58:35;100397.75;;;18.06;100.00
19676;BME280;39539;52.202;9.876;2022-08-19T04:01:07;100416.34;;;18.18;100.00
19676;BME280;39539;52.202;9.876;2022-08-19T04:03:33;100411.78;;;18.18;100.00
19676;BME280;39539;52.202;9.876;2022-08-19T04:06:13;100423.34;;;18.19;100.00
19676;BME280;39539;52.202;9.876;2022-08-19T04:08:43;100427.66;;;18.15;100.00
19676;BME280;39539;52.202;9.876;2022-08-19T04:11:11;100414.41;;;18.03;100.00
19676;BME280;39539;52.202;9.876;2022-08-19T04:13:37;100425.72;;;18.10;100.00
19676;BME280;39539;52.202;9.876;2022-08-19T04:16:03;100430.59;;;18.18;100.00
19676;BME280;39539;52.202;9.876;2022-08-19T04:18:29;100406.63;;;18.07;100.00
19676;BME280;39539;52.202;9.876;2022-08-19T04:20:58;100396.91;;;18.06;100.00
19676;BME280;39539;52.202;9.876;2022-08-19T04:23:23;100418.50;;;18.21;100.00
19676;BME280;39539;52.202;9.876;2022-08-19T04:25:49;100406.13;;;18.15;100.00
19676;BME280;39539;52.202;9.876;2022-08-19T04:28:14;100402.91;;;18.18;100.00
19676;BME280;39539;52.202;9.876;2022-08-19T04:30:44;100426.31;;;18.23;100.00
19676;BME280;39539;52.202;9.876;2022-08-19T04:33:13;100424.94;;;18.15;100.00
19676;BME280;39539;52.202;9.876;2022-08-19T04:35:43;100422.78;;;18.12;100.00
19676;BME280;39539;52.202;9.876;2022-08-19T04:38:09;100423.31;;;18.09;100.00
19676;BME280;39539;52.202;9.876;2022-08-19T04:40:40;100440.00;;;18.16;100.00
19676;BME280;39539;52.202;9.876;2022-08-19T04:43:25;100440.81;;;18.16;100.00
19676;BME280;39539;52.202;9.876;2022-08-19T04:45:51;100445.91;;;18.13;100.00
19676;BME280;39539;52.202;9.876;2022-08-19T04:48:17;100450.50;;;18.12;100.00
19676;BME280;39539;52.202;9.876;2022-08-19T04:50:48;100444.84;;;18.09;100.00
19676;BME280;39539;52.202;9.876;2022-08-19T04:53:13;100441.03;;;18.05;100.00
19676;BME280;39539;52.202;9.876;2022-08-19T04:55:41;100445.91;;;18.13;100.00
19676;BME280;39539;52.202;9.876;2022-08-19T04:58:06;100434.06;;;18.14;100.00
19676;BME280;39539;52.202;9.876;2022-08-19T05:00:32;100429.50;;;18.09;100.00
19676;BME280;39539;52.202;9.876;2022-08-19T05:02:57;100426.00;;;18.14;100.00
19676;BME280;39539;52.202;9.876;2022-08-19T05:05:22;100443.81;;;18.25;100.00
19676;BME280;39539;52.202;9.876;2022-08-19T05:07:49;100429.53;;;18.20;100.00
19676;BME280;39539;52.202;9.876;2022-08-19T05:10:15;100437.38;;;18.31;100.00
19676;BME280;39539;52.202;9.876;2022-08-19T05:12:40;100424.47;;;18.33;100.00
19676;BME280;39539;52.202;9.876;2022-08-19T05:15:06;100423.13;;;18.36;100.00
19676;BME280;39539;52.202;9.876;2022-08-19T05:17:34;100426.69;;;18.52;100.00
19676;BME280;39539;52.202;9.876;2022-08-19T05:19:59;100425.88;;;18.51;100.00
19676;BME280;39539;52.202;9.876;2022-08-19T05:22:45;100422.91;;;18.53;100.00
19676;BME280;39539;52.202;9.876;2022-08-19T05:25:15;100421.56;;;18.55;100.00
19676;BME280;39539;52.202;9.876;2022-08-19T05:27:43;100431.03;;;18.63;100.00
19676;BME280;39539;52.202;9.876;2022-08-19T05:30:09;100435.59;;;18.68;100.00
19676;BME280;39539;52.202;9.876;2022-08-19T05:32:35;100427.50;;;18.68;100.00
19676;BME280;39539;52.202;9.876;2022-08-19T05:35:01;100441.84;;;18.78;100.00
19676;BME280;39539;52.202;9.876;2022-08-19T05:37:26;100439.16;;;18.83;100.00
19676;BME280;39539;52.202;9.876;2022-08-19T05:39:53;100453.72;;;18.98;100.00
19676;BME280;39539;52.202;9.876;2022-08-19T05:42:19;100453.72;;;19.13;100.00
19676;BME280;39539;52.202;9.876;2022-08-19T05:44:46;100447.53;;;19.23;100.00
19676;BME280;39539;52.202;9.876;2022-08-19T05:47:14;100414.09;;;19.19;100.00
19676;BME280;39539;52.202;9.876;2022-08-19T05:49:42;100433.22;;;19.33;100.00
19676;BME280;39539;52.202;9.876;2022-08-19T05:52:10;100427.31;;;19.20;100.00
19676;BME280;39539;52.202;9.876;2022-08-19T05:54:38;100454.25;;;19.46;100.00
19676;BME280;39539;52.202;9.876;2022-08-19T05:57:05;100450.47;;;19.52;100.00
19676;BME280;39539;52.202;9.876;2022-08-19T05:59:31;100448.03;;;19.61;100.00
19676;BME280;39539;52.202;9.876;2022-08-19T06:01:57;100448.31;;;19.69;100.00
19676;BME280;39539;52.202;9.876;2022-08-19T06:04:22;100442.38;;;19.72;100.00
19676;BME280;39539;52.202;9.876;2022-08-19T06:06:50;100440.75;;;19.77;100.00
19676;BME280;39539;52.202;9.876;2022-08-19T06:09:17;100440.22;;;19.80;100.00
19676;BME280;39539;52.202;9.876;2022-08-19T06:14:16;100426.72;;;19.64;100.00
19676;BME280;39539;52.202;9.876;2022-08-19T06:16:43;100434.28;;;19.62;100.00
19676;BME280;39539;52.202;9.876;2022-08-19T06:19:12;100445.63;;;19.59;100.00
19676;BME280;39539;52.202;9.876;2022-08-19T06:21:40;100447.22;;;19.50;100.00
19676;BME280;39539;52.202;9.876;2022-08-19T06:24:07;100448.31;;;19.39;100.00
19676;BME280;39539;52.202;9.876;2022-08-19T06:26:35;100454.28;;;19.31;100.00
19676;BME280;39539;52.202;9.876;2022-08-19T06:29:02;100465.06;;;19.31;100.00
19676;BME280;39539;52.202;9.876;2022-08-19T06:31:29;100442.41;;;19.16;100.00
19676;BME280;39539;52.202;9.876;2022-08-19T06:33:56;100462.34;;;19.25;100.00
19676;BME280;39539;52.202;9.876;2022-08-19T06:36:25;100450.47;;;19.21;100.00
19676;BME280;39539;52.202;9.876;2022-08-19T06:39:04;100459.66;;;19.31;100.00
19676;BME280;39539;52.202;9.876;2022-08-19T06:41:39;100465.84;;;19.36;100.00
19676;BME280;39539;52.202;9.876;2022-08-19T06:44:06;100453.72;;;19.28;100.00
19676;BME280;39539;52.202;9.876;2022-08-19T06:46:31;100466.13;;;19.29;100.00
19676;BME280;39539;52.202;9.876;2022-08-19T06:48:57;100462.88;;;19.33;100.00
19676;BME280;39539;52.202;9.876;2022-08-19T06:51:23;100442.41;;;19.26;100.00
19676;BME280;39539;52.202;9.876;2022-08-19T06:53:51;100469.34;;;19.47;100.00
19676;BME280;39539;52.202;9.876;2022-08-19T06:56:24;100474.47;;;19.48;100.00
19676;BME280;39539;52.202;9.876;2022-08-19T06:58:52;100484.97;;;19.60;100.00
19676;BME280;39539;52.202;9.876;2022-08-19T07:01:19;100489.81;;;19.84;100.00
19676;BME280;39539;52.202;9.876;2022-08-19T07:03:46;100497.84;;;20.19;100.00
19676;BME280;39539;52.202;9.876;2022-08-19T07:06:16;100498.22;;;20.57;100.00
19676;BME280;39539;52.202;9.876;2022-08-19T07:08:44;100498.56;;;21.35;100.00
19676;BME280;39539;52.202;9.876;2022-08-19T07:11:11;100490.38;;;22.27;97.39
19676;BME280;39539;52.202;9.876;2022-08-19T07:13:38;100491.97;;;22.52;94.18
19676;BME280;39539;52.202;9.876;2022-08-19T07:16:06;100501.63;;;22.39;93.50
19676;BME280;39539;52.202;9.876;2022-08-19T07:18:38;100494.72;;;22.28;95.14
19676;BME280;39539;52.202;9.876;2022-08-19T07:21:10;100497.41;;;22.28;95.52
19676;BME280;39539;52.202;9.876;2022-08-19T07:23:36;100482.59;;;22.21;94.76
19676;BME280;39539;52.202;9.876;2022-08-19T07:26:15;100478.59;;;22.13;93.22
19676;BME280;39539;52.202;9.876;2022-08-19T07:28:42;100478.72;;;22.03;95.44
19676;BME280;39539;52.202;9.876;2022-08-19T07:31:11;100484.81;;;21.89;95.68
19676;BME280;39539;52.202;9.876;2022-08-19T07:33:46;100504.13;;;22.07;94.69
19676;BME280;39539;52.202;9.876;2022-08-19T07:36:15;100501.38;;;22.12;92.67
19676;BME280;39539;52.202;9.876;2022-08-19T07:38:44;100495.78;;;22.27;92.59
19676;BME280;39539;52.202;9.876;2022-08-19T07:41:13;100513.41;;;22.49;92.09
19676;BME280;39539;52.202;9.876;2022-08-19T07:43:39;100510.19;;;22.47;91.59
19676;BME280;39539;52.202;9.876;2022-08-19T07:46:06;100519.81;;;22.77;92.00
19676;BME280;39539;52.202;9.876;2022-08-19T07:48:32;100513.88;;;22.94;89.94
19676;BME280;39539;52.202;9.876;2022-08-19T07:51:00;100512.59;;;23.10;87.76
19676;BME280;39539;52.202;9.876;2022-08-19T07:53:30;100501.44;;;23.30;86.31
19676;BME280;39539;52.202;9.876;2022-08-19T07:55:58;100524.81;;;23.59;85.00
19676;BME280;39539;52.202;9.876;2022-08-19T07:58:36;100524.09;;;23.72;83.94
19676;BME280;39539;52.202;9.876;2022-08-19T08:01:05;100521.66;;;23.71;85.02
19676;BME280;39539;52.202;9.876;2022-08-19T08:03:31;100522.50;;;23.66;84.29
19676;BME280;39539;52.202;9.876;2022-08-19T08:06:16;100522.69;;;23.75;82.11
19676;BME280;39539;52.202;9.876;2022-08-19T08:09:03;100521.09;;;23.88;83.86
19676;BME280;39539;52.202;9.876;2022-08-19T08:11:58;100513.22;;;23.86;83.20
19676;BME280;39539;52.202;9.876;2022-08-19T08:14:27;100519.06;;;23.80;83.30
19676;BME280;39539;52.202;9.876;2022-08-19T08:16:53;100497.28;;;23.66;81.65
19676;BME280;39539;52.202;9.876;2022-08-19T08:19:20;100499.38;;;24.02;82.90
19676;BME280;39539;52.202;9.876;2022-08-19T08:21:47;100501.38;;;25.01;77.92
19676;BME280;39539;52.202;9.876;2022-08-19T08:24:15;100496.53;;;26.46;72.68
19676;BME280;39539;52.202;9.876;2022-08-19T08:26:41;100497.22;;;28.32;66.34
19676;BME280;39539;52.202;9.876;2022-08-19T08:29:09;100516.31;;;29.79;59.40
19676;BME280;39539;52.202;9.876;2022-08-19T08:31:35;100506.03;;;32.06;54.75
19676;BME280;39539;52.202;9.876;2022-08-19T08:34:03;100492.63;;;33.80;51.06
19676;BME280;39539;52.202;9.876;2022-08-19T08:36:28;100507.00;;;33.89;47.25
19676;BME280;39539;52.202;9.876;2022-08-19T08:38:54;100501.41;;;32.61;50.15
19676;BME280;39539;52.202;9.876;2022-08-19T08:47:04;100540.44;;;30.10;55.45
19676;BME280;39539;52.202;9.876;2022-08-19T08:49:51;100528.34;;;31.01;51.75
19676;BME280;39539;52.202;9.876;2022-08-19T08:52:34;100538.59;;;30.63;52.67
19676;BME280;39539;52.202;9.876;2022-08-19T08:55:15;100525.22;;;29.88;54.88
19676;BME280;39539;52.202;9.876;2022-08-19T09:00:44;100524.66;;;29.49;55.75
19676;BME280;39539;52.202;9.876;2022-08-19T09:03:21;100519.75;;;29.55;56.33
19676;BME280;39539;52.202;9.876;2022-08-19T09:06:07;100526.63;;;29.61;54.87
19676;BME280;39539;52.202;9.876;2022-08-19T09:14:45;100516.56;;;33.72;47.43
19676;BME280;39539;52.202;9.876;2022-08-19T09:17:22;100521.22;;;35.01;44.62
19676;BME280;39539;52.202;9.876;2022-08-19T09:19:58;100511.94;;;36.02;42.04
19676;BME280;39539;52.202;9.876;2022-08-19T09:22:26;100528.59;;;36.64;41.71
19676;BME280;39539;52.202;9.876;2022-08-19T09:24:53;100534.38;;;37.18;40.28
19676;BME280;39539;52.202;9.876;2022-08-19T09:27:20;100524.03;;;37.11;39.40
19676;BME280;39539;52.202;9.876;2022-08-19T09:29:49;100533.22;;;37.26;39.00
19676;BME280;39539;52.202;9.876;2022-08-19T09:32:17;100527.69;;;37.40;38.73
19676;BME280;39539;52.202;9.876;2022-08-19T09:34:43;100529.34;;;37.95;38.31
19676;BME280;39539;52.202;9.876;2022-08-19T09:37:09;100512.59;;;38.56;36.66
19676;BME280;39539;52.202;9.876;2022-08-19T09:39:35;100519.69;;;38.64;36.75
19676;BME280;39539;52.202;9.876;2022-08-19T09:42:02;100513.34;;;38.67;36.22
19676;BME280;39539;52.202;9.876;2022-08-19T09:44:30;100528.94;;;39.27;36.04
19676;BME280;39539;52.202;9.876;2022-08-19T09:47:00;100515.81;;;38.36;36.79
19676;BME280;39539;52.202;9.876;2022-08-19T09:49:26;100512.06;;;38.93;35.70
19676;BME280;39539;52.202;9.876;2022-08-19T09:51:53;100492.97;;;38.99;35.53
19676;BME280;39539;52.202;9.876;2022-08-19T09:54:21;100502.25;;;39.41;36.68
19676;BME280;39539;52.202;9.876;2022-08-19T09:56:46;100505.53;;;39.81;35.03
19676;BME280;39539;52.202;9.876;2022-08-19T09:59:12;100500.78;;;40.19;34.26
19676;BME280;39539;52.202;9.876;2022-08-19T10:01:43;100496.28;;;40.67;34.02
19676;BME280;39539;52.202;9.876;2022-08-19T10:04:09;100492.31;;;40.30;33.96
19676;BME280;39539;52.202;9.876;2022-08-19T10:06:38;100495.31;;;40.46;34.88
19676;BME280;39539;52.202;9.876;2022-08-19T10:09:05;100488.00;;;39.32;33.67
19676;BME280;39539;52.202;9.876;2022-08-19T10:11:33;100487.59;;;40.27;33.87
19676;BME280;39539;52.202;9.876;2022-08-19T10:14:01;100486.81;;;39.25;34.51
19676;BME280;39539;52.202;9.876;2022-08-19T10:16:27;100472.16;;;39.73;35.55
19676;BME280;39539;52.202;9.876;2022-08-19T10:18:53;100462.09;;;39.42;35.28
19676;BME280;39539;52.202;9.876;2022-08-19T10:21:28;100490.78;;;39.32;35.51
19676;BME280;39539;52.202;9.876;2022-08-19T10:23:56;100474.47;;;39.34;34.68
19676;BME280;39539;52.202;9.876;2022-08-19T10:26:28;100481.88;;;38.92;35.85
19676;BME280;39539;52.202;9.876;2022-08-19T10:28:54;100465.41;;;38.34;35.22
19676;BME280;39539;52.202;9.876;2022-08-19T10:31:26;100478.97;;;37.89;35.35
19676;BME280;39539;52.202;9.876;2022-08-19T10:33:53;100459.94;;;36.29;37.27
19676;BME280;39539;52.202;9.876;2022-08-19T10:36:32;100455.28;;;35.37;39.56
19676;BME280;39539;52.202;9.876;2022-08-19T10:39:02;100466.81;;;33.91;41.98
19676;BME280;39539;52.202;9.876;2022-08-19T10:41:35;100470.66;;;33.18;43.92
19676;BME280;39539;52.202;9.876;2022-08-19T10:44:04;100459.31;;;32.26;45.42
19676;BME280;39539;52.202;9.876;2022-08-19T10:46:33;100458.44;;;32.22;44.73
19676;BME280;39539;52.202;9.876;2022-08-19T10:49:04;100439.16;;;30.95;46.13
19676;BME280;39539;52.202;9.876;2022-08-19T10:51:31;100449.09;;;31.15;45.05
19676;BME280;39539;52.202;9.876;2022-08-19T10:54:16;100442.28;;;30.69;46.76
19676;BME280;39539;52.202;9.876;2022-08-19T10:56:41;100452.06;;;30.54;48.11
19676;BME280;39539;52.202;9.876;2022-08-19T10:59:18;100444.56;;;30.14;48.97
19676;BME280;39539;52.202;9.876;2022-08-19T11:01:45;100439.69;;;29.83;48.23
19676;BME280;39539;52.202;9.876;2022-08-19T11:04:14;100442.94;;;29.39;48.62
19676;BME280;39539;52.202;9.876;2022-08-19T11:06:46;100445.69;;;29.51;50.33
19676;BME280;39539;52.202;9.876;2022-08-19T11:09:20;100447.25;;;29.52;51.62
19676;BME280;39539;52.202;9.876;2022-08-19T11:11:46;100433.34;;;29.33;51.54
19676;BME280;39539;52.202;9.876;2022-08-19T11:14:16;100419.94;;;28.86;49.35
19676;BME280;39539;52.202;9.876;2022-08-19T11:16:47;100412.34;;;28.50;49.02
19676;BME280;39539;52.202;9.876;2022-08-19T11:19:13;100429.56;;;28.50;52.40
19676;BME280;39539;52.202;9.876;2022-08-19T11:21:43;100425.94;;;28.37;51.78
19676;BME280;39539;52.202;9.876;2022-08-19T11:24:17;100419.56;;;28.25;52.10
19676;BME280;39539;52.202;9.876;2022-08-19T11:26:44;100423.63;;;27.97;52.67
19676;BME280;39539;52.202;9.876;2022-08-19T11:29:11;100435.84;;;27.53;52.44
19676;BME280;39539;52.202;9.876;2022-08-19T11:31:41;100436.25;;;27.72;52.96
19676;BME280;39539;52.202;9.876;2022-08-19T11:34:12;100431.25;;;27.74;55.25
19676;BME280;39539;52.202;9.876;2022-08-19T11:36:41;100441.28;;;28.00;55.12
19676;BME280;39539;52.202;9.876;2022-08-19T11:39:08;100428.44;;;28.01;55.00
19676;BME280;39539;52.202;9.876;2022-08-19T11:41:35;100402.25;;;27.91;52.17
19676;BME280;39539;52.202;9.876;2022-08-19T11:44:00;100433.28;;;27.95;54.23
19676;BME280;39539;52.202;9.876;2022-08-19T11:46:28;100420.69;;;28.03;52.80
19676;BME280;39539;52.202;9.876;2022-08-19T11:48:57;100415.31;;;28.15;52.69
19676;BME280;39539;52.202;9.876;2022-08-19T11:51:25;100411.97;;;28.09;50.16
19676;BME280;39539;52.202;9.876;2022-08-19T11:53:52;100396.97;;;27.94;52.74
19676;BME280;39539;52.202;9.876;2022-08-19T11:56:19;100396.97;;;27.94;51.81
19676;BME280;39539;52.202;9.876;2022-08-19T11:58:46;100405.28;;;27.98;51.28
19676;BME280;39539;52.202;9.876;2022-08-19T12:01:14;100387.25;;;27.67;51.94
19676;BME280;39539;52.202;9.876;2022-08-19T12:03:45;100387.75;;;27.69;53.31
19676;BME280;39539;52.202;9.876;2022-08-19T12:06:13;100395.13;;;27.69;52.22
19676;BME280;39539;52.202;9.876;2022-08-19T12:08:40;100399.16;;;27.71;53.01
19676;BME280;39539;52.202;9.876;2022-08-19T12:11:08;100384.44;;;27.55;51.12
19676;BME280;39539;52.202;9.876;2022-08-19T12:13:36;100418.41;;;27.28;51.80
19676;BME280;39539;52.202;9.876;2022-08-19T12:16:17;100411.50;;;27.30;53.54
19676;BME280;39539;52.202;9.876;2022-08-19T12:18:44;100422.59;;;27.25;52.19
19676;BME280;39539;52.202;9.876;2022-08-19T12:21:12;100422.13;;;27.23;53.23
19676;BME280;39539;52.202;9.876;2022-08-19T12:23:39;100417.75;;;27.31;53.37
19676;BME280;39539;52.202;9.876;2022-08-19T12:26:05;100416.66;;;27.32;51.54
19676;BME280;39539;52.202;9.876;2022-08-19T12:28:32;100411.97;;;27.33;52.94
19676;BME280;39539;52.202;9.876;2022-08-19T12:30:58;100410.97;;;27.37;51.96
19676;BME280;39539;52.202;9.876;2022-08-19T12:33:23;100415.00;;;27.40;52.94
19676;BME280;39539;52.202;9.876;2022-08-19T12:35:52;100407.81;;;27.35;51.98
19676;BME280;39539;52.202;9.876;2022-08-19T12:38:18;100409.38;;;27.45;50.17
19676;BME280;39539;52.202;9.876;2022-08-19T12:40:48;100409.31;;;27.53;49.93
19676;BME280;39539;52.202;9.876;2022-08-19T12:43:14;100407.06;;;27.56;49.38
19676;BME280;39539;52.202;9.876;2022-08-19T12:45:41;100406.47;;;27.50;50.27
19676;BME280;39539;52.202;9.876;2022-08-19T12:48:08;100387.03;;;27.43;50.94
19676;BME280;39539;52.202;9.876;2022-08-19T12:50:33;100408.19;;;27.63;50.01
19676;BME280;39539;52.202;9.876;2022-08-19T12:52:59;100404.34;;;27.56;49.67
19676;BME280;39539;52.202;9.876;2022-08-19T12:55:24;100384.69;;;27.33;50.97
19676;BME280;39539;52.202;9.876;2022-08-19T12:57:50;100399.31;;;27.28;48.24
19676;BME280;39539;52.202;9.876;2022-08-19T13:00:19;100394.22;;;26.92;49.22
19676;BME280;39539;52.202;9.876;2022-08-19T13:02:48;100396.44;;;27.07;51.10
19676;BME280;39539;52.202;9.876;2022-08-19T13:05:25;100386.97;;;27.22;51.07
19676;BME280;39539;52.202;9.876;2022-08-19T13:07:53;100389.53;;;27.27;51.33
19676;BME280;39539;52.202;9.876;2022-08-19T13:10:23;100400.91;;;27.20;51.78